createdAt,value
2018-04-06T00:01:30.907Z,4.20
2018-04-06T00:03:58.548Z,4.30
2018-04-06T00:06:26.043Z,4.30
2018-04-06T00:08:53.539Z,4.30
2018-04-06T00:11:21.039Z,4.30
2018-04-06T00:13:48.667Z,4.20
2018-04-06T00:16:16.181Z,4.10
2018-04-06T00:18:44.494Z,4.20
2018-04-06T00:21:12.006Z,4.10
2018-04-06T00:23:39.687Z,4.10
2018-04-06T00:26:07.487Z,4.10
2018-04-06T00:28:35.033Z,4.10
2018-04-06T00:31:02.992Z,4.10
2018-04-06T00:33:30.488Z,4.20
2018-04-06T00:35:58.280Z,4.10
2018-04-06T00:38:25.773Z,4.10
2018-04-06T00:40:53.415Z,4.20
2018-04-06T00:43:20.916Z,4.00
2018-04-06T00:45:49.166Z,4.00
2018-04-06T00:48:16.757Z,4.00
2018-04-06T00:50:44.358Z,3.90
2018-04-06T00:53:24.367Z,3.80
2018-04-06T00:55:52.019Z,3.80
2018-04-06T00:58:19.515Z,3.90
2018-04-06T01:00:47.262Z,3.90
2018-04-06T01:03:14.758Z,3.80
2018-04-06T01:05:42.284Z,3.70
2018-04-06T01:08:10.223Z,3.70
2018-04-06T01:10:37.927Z,3.60
2018-04-06T01:13:05.443Z,3.60
2018-04-06T01:15:32.943Z,3.60
2018-04-06T01:18:01.184Z,3.70
2018-04-06T01:20:28.711Z,3.70
2018-04-06T01:22:56.236Z,3.70
2018-04-06T01:25:23.957Z,3.70
2018-04-06T01:27:51.721Z,3.60
2018-04-06T01:30:19.484Z,3.60
2018-04-06T01:32:47.603Z,3.60
2018-04-06T01:35:15.833Z,3.50
2018-04-06T01:37:43.334Z,3.40
2018-04-06T01:40:10.859Z,3.60
2018-04-06T01:42:38.383Z,3.50
2018-04-06T01:45:06.028Z,3.50
2018-04-06T01:47:33.531Z,3.50
2018-04-06T01:50:01.809Z,3.50
2018-04-06T01:52:30.112Z,3.50
2018-04-06T01:54:58.652Z,3.50
2018-04-06T01:57:26.163Z,3.50
2018-04-06T01:59:53.787Z,3.60
2018-04-06T02:02:21.328Z,3.50
2018-04-06T02:04:49.647Z,3.70
2018-04-06T02:07:17.203Z,3.60
2018-04-06T02:09:44.892Z,3.70
2018-04-06T02:12:12.427Z,3.80
2018-04-06T02:14:39.914Z,3.80
2018-04-06T02:17:08.319Z,3.80
2018-04-06T02:19:35.992Z,3.70
2018-04-06T02:22:03.546Z,3.70
2018-04-06T02:24:31.051Z,3.70
2018-04-06T02:26:59.344Z,3.80
2018-04-06T02:29:26.839Z,3.80
2018-04-06T02:31:54.346Z,3.80
2018-04-06T02:34:21.849Z,3.70
2018-04-06T02:36:49.501Z,3.60
2018-04-06T02:39:17.014Z,3.60
2018-04-06T02:41:45.550Z,3.50
2018-04-06T02:44:13.047Z,3.50
2018-04-06T02:46:40.556Z,3.50
2018-04-06T02:49:08.055Z,3.40
2018-04-06T02:51:36.348Z,3.40
2018-04-06T02:54:03.998Z,3.40
2018-04-06T02:56:31.499Z,3.40
2018-04-06T02:58:59.005Z,3.40
2018-04-06T03:01:26.510Z,3.50
2018-04-06T03:03:54.800Z,3.50
2018-04-06T03:06:22.313Z,3.50
2018-04-06T03:08:50.004Z,3.40
2018-04-06T03:11:17.512Z,3.40
2018-04-06T03:13:45.020Z,3.40
2018-04-06T03:16:12.515Z,3.40
2018-04-06T03:18:40.031Z,3.40
2018-04-06T03:21:07.532Z,3.40
2018-04-06T03:23:35.564Z,3.50
2018-04-06T03:26:03.092Z,3.50
2018-04-06T03:28:30.599Z,3.30
2018-04-06T03:30:58.213Z,3.20
2018-04-06T03:33:26.734Z,3.20
2018-04-06T03:35:54.256Z,3.20
2018-04-06T03:38:22.643Z,3.30
2018-04-06T03:40:50.152Z,3.20
2018-04-06T03:43:17.727Z,3.20
2018-04-06T03:45:46.131Z,3.30
2018-04-06T03:48:13.637Z,3.30
2018-04-06T03:50:41.895Z,3.00
2018-04-06T03:53:09.439Z,3.00
2018-04-06T03:55:36.932Z,3.00
2018-04-06T03:58:04.436Z,3.00
2018-04-06T04:00:32.139Z,3.10
2018-04-06T04:02:59.639Z,3.00
2018-04-06T04:05:27.372Z,2.90
2018-04-06T04:07:55.124Z,2.90
2018-04-06T04:10:22.888Z,2.90
2018-04-06T04:12:52.114Z,2.90
2018-04-06T04:15:19.603Z,3.00
2018-04-06T04:17:47.123Z,3.00
2018-04-06T04:20:14.618Z,3.00
2018-04-06T04:22:42.315Z,3.00
2018-04-06T04:25:09.824Z,3.00
2018-04-06T04:27:37.535Z,3.10
2018-04-06T04:30:05.299Z,3.20
2018-04-06T04:32:33.065Z,3.10
2018-04-06T04:35:00.571Z,3.10
2018-04-06T04:37:28.068Z,3.00
2018-04-06T04:39:55.624Z,3.10
2018-04-06T04:42:24.123Z,3.20
2018-04-06T04:44:51.892Z,3.20
2018-04-06T04:47:19.651Z,3.20
2018-04-06T04:49:47.355Z,3.20
2018-04-06T04:52:14.865Z,3.10
2018-04-06T04:54:42.640Z,3.10
2018-04-06T04:57:10.144Z,3.10
2018-04-06T04:59:38.575Z,3.10
2018-04-06T05:02:06.107Z,3.00
2018-04-06T05:04:33.603Z,3.00
2018-04-06T05:07:01.162Z,3.10
2018-04-06T05:09:30.173Z,3.10
2018-04-06T05:11:57.895Z,3.10
2018-04-06T05:14:25.680Z,3.00
2018-04-06T05:16:53.425Z,3.10
2018-04-06T05:19:20.924Z,3.00
2018-04-06T05:21:48.960Z,4.30
2018-04-06T05:24:16.712Z,4.30
2018-04-06T05:26:44.443Z,6.00
2018-04-06T05:29:12.063Z,6.70
2018-04-06T05:31:39.575Z,6.60
2018-04-06T05:34:07.888Z,7.20
2018-04-06T05:36:35.676Z,7.30
2018-04-06T05:39:04.032Z,8.20
2018-04-06T05:41:31.671Z,8.20
2018-04-06T05:43:59.405Z,8.30
2018-04-06T05:46:26.899Z,8.20
2018-04-06T05:48:54.655Z,9.40
2018-04-06T05:51:22.158Z,8.40
2018-04-06T05:53:49.970Z,7.50
2018-04-06T05:56:17.466Z,7.90
2018-04-06T05:58:44.973Z,7.80
2018-04-06T06:01:12.532Z,7.90
2018-04-06T06:03:40.316Z,8.90
2018-04-06T06:06:07.826Z,9.20
2018-04-06T06:08:35.504Z,8.50
2018-04-06T06:11:03.007Z,8.30
2018-04-06T06:13:30.762Z,8.30
2018-04-06T06:15:58.268Z,8.00
2018-04-06T06:18:25.780Z,5.70
2018-04-06T06:20:54.056Z,4.50
2018-04-06T06:23:21.817Z,4.50
2018-04-06T06:25:50.087Z,4.10
2018-04-06T06:28:17.582Z,4.10
2018-04-06T06:30:45.112Z,4.00
2018-04-06T06:33:12.612Z,4.00
2018-04-06T06:35:40.324Z,4.00
2018-04-06T06:38:07.823Z,4.10
2018-04-06T06:40:35.545Z,4.10
2018-04-06T06:43:04.105Z,4.30
2018-04-06T06:45:32.341Z,4.30
2018-04-06T06:48:00.068Z,4.40
2018-04-06T06:50:27.598Z,4.40
2018-04-06T06:52:55.091Z,4.40
2018-04-06T06:55:22.592Z,4.30
2018-04-06T06:57:50.153Z,4.50
2018-04-06T07:00:17.978Z,4.40
2018-04-06T07:02:45.473Z,4.30
2018-04-06T07:05:13.180Z,4.50
2018-04-06T07:07:40.676Z,4.60
2018-04-06T07:10:08.708Z,4.60
2018-04-06T07:12:36.496Z,4.60
2018-04-06T07:15:04.505Z,4.50
2018-04-06T07:17:31.996Z,4.70
2018-04-06T07:19:59.499Z,4.80
2018-04-06T07:22:27.018Z,4.90
2018-04-06T07:24:54.513Z,4.90
2018-04-06T07:27:22.029Z,5.00
2018-04-06T07:29:49.581Z,5.00
2018-04-06T07:32:17.139Z,4.90
2018-04-06T07:34:44.815Z,4.90
2018-04-06T07:37:12.320Z,5.30
2018-04-06T07:39:40.027Z,5.30
2018-04-06T07:42:07.540Z,5.30
2018-04-06T07:44:35.043Z,5.40
2018-04-06T07:47:02.539Z,5.30
2018-04-06T07:49:30.799Z,5.60
2018-04-06T07:51:58.319Z,5.60
2018-04-06T07:54:25.824Z,5.90
2018-04-06T07:56:53.323Z,5.90
2018-04-06T07:59:20.905Z,6.00
2018-04-06T08:01:48.437Z,5.80
2018-04-06T08:04:15.953Z,5.90
2018-04-06T08:06:43.579Z,6.10
2018-04-06T08:09:11.348Z,6.20
2018-04-06T08:11:39.123Z,6.20
2018-04-06T08:14:06.625Z,6.20
2018-04-06T08:16:34.351Z,6.30
2018-04-06T08:19:02.275Z,6.50
2018-04-06T08:21:29.828Z,6.60
2018-04-06T08:23:57.317Z,6.50
2018-04-06T08:26:24.850Z,6.90
2018-04-06T08:28:52.323Z,6.60
2018-04-06T08:31:19.987Z,6.60
2018-04-06T08:33:47.498Z,6.70
2018-04-06T08:36:15.187Z,6.70
2018-04-06T08:38:43.563Z,7.00
2018-04-06T08:41:11.071Z,7.00
2018-04-06T08:43:38.812Z,7.10
2018-04-06T08:46:06.312Z,7.10
2018-04-06T08:48:33.828Z,7.00
2018-04-06T08:51:01.460Z,7.40
2018-04-06T08:53:28.958Z,7.20
2018-04-06T08:55:57.482Z,7.20
2018-04-06T08:58:26.011Z,7.50
2018-04-06T09:00:54.046Z,7.60
2018-04-06T09:03:21.532Z,7.60
2018-04-06T09:05:49.040Z,7.60
2018-04-06T09:08:16.539Z,7.50
2018-04-06T09:10:44.063Z,7.60
2018-04-06T09:13:12.304Z,7.80
2018-04-06T09:15:39.806Z,7.80
2018-04-06T09:18:07.499Z,7.90
2018-04-06T09:20:35.008Z,7.50
2018-04-06T09:23:02.719Z,7.60
2018-04-06T09:25:30.484Z,7.60
2018-04-06T09:27:57.989Z,7.60
2018-04-06T09:30:25.507Z,7.60
2018-04-06T09:32:53.188Z,8.00
2018-04-06T09:35:20.677Z,8.00
2018-04-06T09:37:48.194Z,8.10
2018-04-06T09:40:15.836Z,8.40
2018-04-06T09:42:43.341Z,8.50
2018-04-06T09:45:10.836Z,8.50
2018-04-06T09:47:38.332Z,8.50
2018-04-06T09:50:06.169Z,8.70
2018-04-06T09:52:33.644Z,8.80
2018-04-06T09:55:01.149Z,8.80
2018-04-06T09:57:28.652Z,8.90
2018-04-06T09:59:56.369Z,9.00
2018-04-06T10:02:23.880Z,8.70
2018-04-06T10:04:51.361Z,8.40
2018-04-06T10:07:18.919Z,8.40
2018-04-06T10:09:47.215Z,8.60
2018-04-06T10:12:14.727Z,8.80
2018-04-06T10:14:42.465Z,8.90
2018-04-06T10:17:10.126Z,9.20
2018-04-06T10:19:37.630Z,9.40
2018-04-06T10:22:05.397Z,9.70
2018-04-06T10:24:33.135Z,9.40
2018-04-06T10:27:00.630Z,9.30
2018-04-06T10:29:28.344Z,9.30
2018-04-06T10:31:56.103Z,9.40
2018-04-06T10:34:23.868Z,9.50
2018-04-06T10:36:51.876Z,9.80
2018-04-06T10:39:19.404Z,9.90
2018-04-06T10:41:46.912Z,9.80
2018-04-06T10:44:14.419Z,10.00
2018-04-06T10:46:42.128Z,10.00
2018-04-06T10:49:09.632Z,10.00
2018-04-06T10:51:37.291Z,10.00
2018-04-06T10:54:05.198Z,10.00
2018-04-06T10:56:32.803Z,10.00
2018-04-06T10:59:00.316Z,10.30
2018-04-06T11:01:27.828Z,10.30
2018-04-06T11:03:55.499Z,10.50
2018-04-06T11:06:23.506Z,10.50
2018-04-06T11:08:51.012Z,10.60
2018-04-06T11:11:18.807Z,10.70
2018-04-06T11:13:46.840Z,10.70
2018-04-06T11:16:14.340Z,10.80
2018-04-06T11:18:41.855Z,10.80
2018-04-06T11:21:09.545Z,10.70
2018-04-06T11:23:37.065Z,10.40
2018-04-06T11:26:04.559Z,10.50
2018-04-06T11:28:32.084Z,10.50
2018-04-06T11:30:59.643Z,10.70
2018-04-06T11:33:27.183Z,10.80
2018-04-06T11:35:54.695Z,10.80
2018-04-06T11:38:22.606Z,10.90
2018-04-06T11:40:50.112Z,10.80
2018-04-06T11:43:18.616Z,10.70
2018-04-06T11:45:46.240Z,11.10
2018-04-06T11:48:13.749Z,11.10
2018-04-06T11:50:41.441Z,11.20
2018-04-06T11:53:08.938Z,11.20
2018-04-06T11:55:36.692Z,11.00
2018-04-06T11:58:04.448Z,10.40
2018-04-06T12:00:32.232Z,10.80
2018-04-06T12:03:00.031Z,10.80
2018-04-06T12:05:27.748Z,10.70
2018-04-06T12:07:55.540Z,10.70
2018-04-06T12:10:23.236Z,11.20
2018-04-06T12:12:50.764Z,11.10
2018-04-06T12:15:18.764Z,11.50
2018-04-06T12:17:46.562Z,11.70
2018-04-06T12:20:14.324Z,11.60
2018-04-06T12:22:42.092Z,11.80
2018-04-06T12:25:09.861Z,11.80
2018-04-06T12:27:38.207Z,11.80
2018-04-06T12:30:05.712Z,11.80
2018-04-06T12:32:33.220Z,11.90
2018-04-06T12:35:00.863Z,11.90
2018-04-06T12:37:28.371Z,12.00
2018-04-06T12:39:56.006Z,12.00
2018-04-06T12:42:23.595Z,12.00
2018-04-06T12:44:51.099Z,12.20
2018-04-06T12:47:18.610Z,12.20
2018-04-06T12:49:46.110Z,12.10
2018-04-06T12:52:13.722Z,12.00
2018-04-06T12:54:41.224Z,12.10
2018-04-06T12:57:08.912Z,12.10
2018-04-06T12:59:36.419Z,12.10
2018-04-06T13:02:03.930Z,12.10
2018-04-06T13:04:31.762Z,12.20
2018-04-06T13:07:00.016Z,12.30
2018-04-06T13:09:27.533Z,12.30
2018-04-06T13:11:55.207Z,12.10
2018-04-06T13:14:22.762Z,12.50
2018-04-06T13:16:50.256Z,12.50
2018-04-06T13:19:19.352Z,12.60
2018-04-06T13:21:46.871Z,12.60
2018-04-06T13:24:14.376Z,12.70
2018-04-06T13:26:42.095Z,12.70
2018-04-06T13:29:09.814Z,12.60
2018-04-06T13:31:37.312Z,12.70
2018-04-06T13:34:05.091Z,12.70
2018-04-06T13:36:32.612Z,12.50
2018-04-06T13:39:00.116Z,12.50
2018-04-06T13:41:27.633Z,12.60
2018-04-06T13:43:55.195Z,12.70
2018-04-06T13:46:22.703Z,12.90
2018-04-06T13:48:50.266Z,12.90
2018-04-06T13:51:17.762Z,12.90
2018-04-06T13:53:45.314Z,13.10
2018-04-06T13:56:13.111Z,13.30
2018-04-06T13:58:40.628Z,13.40
2018-04-06T14:01:08.400Z,13.60
2018-04-06T14:03:35.867Z,13.60
2018-04-06T14:06:03.392Z,13.60
2018-04-06T14:08:31.708Z,13.60
2018-04-06T14:10:59.212Z,13.70
2018-04-06T14:13:27.442Z,13.80
2018-04-06T14:15:54.943Z,13.80
2018-04-06T14:18:22.458Z,14.00
2018-04-06T14:20:50.134Z,14.20
2018-04-06T14:23:17.668Z,14.50
2018-04-06T14:25:45.348Z,14.50
2018-04-06T14:28:12.852Z,14.80
2018-04-06T14:30:40.379Z,14.60
2018-04-06T14:33:08.008Z,14.80
2018-04-06T14:35:35.792Z,14.80
2018-04-06T14:38:03.293Z,14.80
2018-04-06T14:40:31.007Z,15.00
2018-04-06T14:42:58.490Z,15.40
2018-04-06T14:45:26.209Z,15.30
2018-04-06T14:47:54.007Z,15.20
2018-04-06T14:50:21.513Z,15.20
2018-04-06T14:52:49.023Z,15.20
2018-04-06T14:55:16.678Z,15.70
2018-04-06T14:57:45.053Z,16.00
2018-04-06T15:00:12.693Z,16.20
2018-04-06T15:02:40.226Z,16.10
2018-04-06T15:05:07.720Z,16.10
2018-04-06T15:07:35.491Z,15.70
2018-04-06T15:10:03.251Z,15.30
2018-04-06T15:12:30.756Z,15.30
2018-04-06T15:14:58.267Z,14.80
2018-04-06T15:17:25.780Z,14.60
2018-04-06T15:19:53.774Z,14.30
2018-04-06T15:22:21.266Z,14.30
2018-04-06T15:24:48.919Z,14.10
2018-04-06T15:27:16.415Z,14.00
2018-04-06T15:29:43.927Z,14.00
2018-04-06T15:32:11.591Z,14.00
2018-04-06T15:34:39.383Z,13.90
2018-04-06T15:37:07.139Z,13.90
2018-04-06T15:39:34.628Z,13.80
2018-04-06T15:42:02.980Z,13.80
2018-04-06T15:44:30.513Z,13.80
2018-04-06T15:46:58.055Z,13.80
2018-04-06T15:49:25.819Z,13.80
2018-04-06T15:51:53.382Z,13.60
2018-04-06T15:54:21.207Z,13.40
2018-04-06T15:56:48.668Z,13.50
2018-04-06T15:59:16.407Z,13.60
2018-04-06T16:01:43.923Z,13.70
2018-04-06T16:04:11.564Z,13.80
2018-04-06T16:06:39.362Z,13.90
2018-04-06T16:09:07.121Z,13.90
2018-04-06T16:11:34.618Z,13.70
2018-04-06T16:14:02.127Z,13.70
2018-04-06T16:16:29.995Z,13.80
2018-04-06T16:18:58.592Z,13.80
2018-04-06T16:21:26.109Z,13.60
2018-04-06T16:23:53.599Z,13.40
2018-04-06T16:26:21.112Z,13.40
2018-04-06T16:28:48.619Z,13.20
2018-04-06T16:31:16.397Z,13.30
2018-04-06T16:33:43.895Z,13.30
2018-04-06T16:36:11.522Z,13.10
2018-04-06T16:38:39.080Z,13.10
2018-04-06T16:41:06.819Z,13.20
2018-04-06T16:43:34.584Z,13.10
2018-04-06T16:46:02.368Z,13.10
2018-04-06T16:48:29.871Z,13.10
2018-04-06T16:50:57.502Z,13.10
2018-04-06T16:53:25.001Z,13.10
2018-04-06T16:55:52.787Z,13.00
2018-04-06T16:58:20.291Z,13.00
2018-04-06T17:00:48.347Z,13.20
2018-04-06T17:03:15.899Z,13.10
2018-04-06T17:05:43.401Z,13.00
2018-04-06T17:08:10.974Z,13.00
2018-04-06T17:10:38.635Z,13.00
2018-04-06T17:13:07.126Z,13.40
2018-04-06T17:15:34.825Z,13.40
2018-04-06T17:18:02.847Z,13.40
2018-04-06T17:20:30.561Z,13.70
2018-04-06T17:22:58.839Z,13.70
2018-04-06T17:25:26.748Z,13.60
2018-04-06T17:27:54.335Z,13.50
2018-04-06T17:30:21.867Z,13.20
2018-04-06T17:32:49.364Z,13.80
2018-04-06T17:35:17.010Z,13.60
2018-04-06T17:37:45.055Z,13.30
2018-04-06T17:40:12.576Z,13.20
2018-04-06T17:42:40.075Z,13.60
2018-04-06T17:45:07.691Z,13.50
2018-04-06T17:47:35.216Z,13.50
2018-04-06T17:50:02.736Z,13.40
2018-04-06T17:52:30.431Z,13.40
2018-04-06T17:54:57.957Z,13.10
2018-04-06T17:57:26.344Z,13.10
2018-04-06T17:59:53.861Z,13.20
2018-04-06T18:02:21.524Z,12.80
2018-04-06T18:04:49.274Z,12.40
2018-04-06T18:07:16.777Z,12.10
2018-04-06T18:09:44.291Z,12.10
2018-04-06T18:12:11.800Z,12.00
2018-04-06T18:14:39.302Z,11.90
2018-04-06T18:17:06.806Z,11.90
2018-04-06T18:19:34.315Z,11.90
2018-04-06T18:22:01.851Z,11.70
2018-04-06T18:24:29.368Z,11.70
2018-04-06T18:26:57.905Z,11.60
2018-04-06T18:29:25.661Z,11.50
2018-04-06T18:31:53.163Z,11.50
2018-04-06T18:34:20.662Z,11.50
2018-04-06T18:36:48.357Z,11.50
2018-04-06T18:39:15.861Z,11.40
2018-04-06T18:41:43.556Z,11.40
2018-04-06T18:44:11.065Z,11.50
2018-04-06T18:46:38.588Z,11.20
2018-04-06T18:49:06.098Z,11.20
2018-04-06T18:51:33.601Z,11.20
2018-04-06T18:54:01.112Z,11.20
2018-04-06T18:56:28.628Z,11.20
2018-04-06T18:58:56.130Z,11.20
2018-04-06T19:01:24.138Z,11.10
2018-04-06T19:03:51.676Z,11.00
2018-04-06T19:06:20.143Z,11.00
2018-04-06T19:08:47.651Z,10.90
2018-04-06T19:11:15.200Z,10.90
2018-04-06T19:13:42.720Z,10.90
2018-04-06T19:16:10.403Z,10.80
2018-04-06T19:18:37.923Z,10.80
2018-04-06T19:21:05.624Z,11.10
2018-04-06T19:23:33.123Z,11.10
2018-04-06T19:26:01.372Z,11.10
2018-04-06T19:28:28.926Z,11.00
2018-04-06T19:30:56.454Z,11.00
2018-04-06T19:33:24.148Z,11.00
2018-04-06T19:35:51.662Z,11.00
2018-04-06T19:38:19.175Z,10.90
2018-04-06T19:40:46.712Z,10.80
2018-04-06T19:43:14.247Z,10.80
2018-04-06T19:45:42.039Z,10.80
2018-04-06T19:48:09.564Z,10.60
2018-04-06T19:50:37.072Z,10.40
2018-04-06T19:53:04.718Z,10.40
2018-04-06T19:55:32.337Z,10.40
2018-04-06T19:57:59.838Z,10.30
2018-04-06T20:00:27.391Z,10.30
2018-04-06T20:02:54.891Z,10.30
2018-04-06T20:05:22.587Z,10.20
2018-04-06T20:07:50.095Z,10.20
2018-04-06T20:10:17.597Z,10.10
2018-04-06T20:12:45.262Z,10.10
2018-04-06T20:15:12.759Z,10.20
2018-04-06T20:17:40.308Z,10.10
2018-04-06T20:20:07.933Z,10.10
2018-04-06T20:22:35.434Z,10.10
2018-04-06T20:25:03.206Z,9.90
2018-04-06T20:27:30.745Z,9.90
2018-04-06T20:29:58.240Z,9.80
2018-04-06T20:32:26.517Z,9.90
2018-04-06T20:34:54.040Z,10.00
2018-04-06T20:37:22.984Z,9.90
2018-04-06T20:39:50.655Z,9.90
2018-04-06T20:42:18.154Z,9.90
2018-04-06T20:44:45.911Z,9.90
2018-04-06T20:47:13.670Z,9.70
2018-04-06T20:49:43.898Z,9.70
2018-04-06T20:52:11.432Z,9.60
2018-04-06T20:54:39.080Z,9.50
2018-04-06T20:57:06.864Z,9.70
2018-04-06T20:59:34.368Z,9.70
2018-04-06T21:02:01.934Z,9.70
2018-04-06T21:04:30.196Z,9.70
2018-04-06T21:06:57.751Z,9.70
2018-04-06T21:09:25.898Z,9.70
2018-04-06T21:11:53.476Z,9.70
2018-04-06T21:14:21.221Z,9.70
2018-04-06T21:16:48.784Z,9.70
2018-04-06T21:19:16.314Z,9.60
2018-04-06T21:21:43.867Z,9.60
2018-04-06T21:24:11.681Z,9.60
2018-04-06T21:26:39.173Z,9.60
2018-04-06T21:29:06.676Z,9.50
2018-04-06T21:31:34.206Z,9.60
2018-04-06T21:34:01.714Z,9.60
2018-04-06T21:36:29.227Z,9.60
2018-04-06T21:38:56.716Z,9.50
2018-04-06T21:41:24.303Z,9.60
2018-04-06T21:43:52.848Z,9.60
2018-04-06T21:46:20.338Z,9.50
2018-04-06T21:48:47.861Z,9.50
2018-04-06T21:51:15.362Z,9.50
2018-04-06T21:53:43.804Z,9.50
2018-04-06T21:56:11.353Z,9.50
2018-04-06T21:58:38.863Z,9.30
2018-04-06T22:01:06.556Z,9.30
2018-04-06T22:03:34.060Z,9.40
2018-04-06T22:06:01.575Z,9.30
2018-04-06T22:08:29.256Z,9.30
2018-04-06T22:10:56.763Z,9.30
2018-04-06T22:13:24.286Z,9.30
2018-04-06T22:15:52.562Z,9.30
2018-04-06T22:18:20.418Z,9.30
2018-04-06T22:20:48.091Z,9.20
2018-04-06T22:23:15.602Z,9.20
2018-04-06T22:25:43.312Z,9.20
2018-04-06T22:28:10.935Z,9.20
2018-04-06T22:30:38.427Z,9.20
2018-04-06T22:33:05.966Z,9.20
2018-04-06T22:35:33.452Z,9.10
2018-04-06T22:38:00.974Z,9.20
2018-04-06T22:40:28.476Z,9.20
2018-04-06T22:42:56.748Z,9.20
2018-04-06T22:45:24.267Z,9.20
2018-04-06T22:47:51.944Z,9.20
2018-04-06T22:50:19.693Z,9.20
2018-04-06T22:52:47.188Z,9.20
2018-04-06T22:55:14.708Z,9.20
2018-04-06T22:57:42.212Z,9.20
2018-04-06T23:00:10.582Z,9.10
2018-04-06T23:02:38.856Z,9.10
2018-04-06T23:05:06.351Z,9.10
2018-04-06T23:07:33.848Z,9.10
2018-04-06T23:10:01.524Z,9.00
2018-04-06T23:12:29.273Z,9.00
2018-04-06T23:14:57.031Z,9.00
2018-04-06T23:17:24.528Z,9.00
2018-04-06T23:19:52.256Z,9.00
2018-04-06T23:22:19.784Z,9.10
2018-04-06T23:24:47.499Z,9.00
2018-04-06T23:27:15.002Z,9.00
2018-04-06T23:29:42.508Z,9.00
2018-04-06T23:32:10.243Z,8.80
2018-04-06T23:34:37.919Z,8.80
2018-04-06T23:37:05.443Z,8.90
2018-04-06T23:39:32.969Z,8.70
2018-04-06T23:42:01.511Z,8.70
2018-04-06T23:44:29.011Z,8.70
2018-04-06T23:46:56.512Z,8.70
2018-04-06T23:49:24.183Z,8.70
2018-04-06T23:51:51.667Z,8.70
2018-04-06T23:54:19.220Z,8.70
2018-04-06T23:56:46.835Z,8.70
2018-04-06T23:59:14.341Z,8.70
